sensor_id;sensor_type;location;lat;lon;timestamp;P1;durP1;ratioP1;P2;durP2;ratioP2
23230;SDS011;11784;49.818;8.632;2022-10-19T00:00:45;5.03;;;2.60;;
23230;SDS011;11784;49.818;8.632;2022-10-19T00:03:11;5.03;;;2.65;;
23230;SDS011;11784;49.818;8.632;2022-10-19T00:05:36;5.95;;;2.13;;
23230;SDS011;11784;49.818;8.632;2022-10-19T00:08:02;6.07;;;2.92;;
23230;SDS011;11784;49.818;8.632;2022-10-19T00:10:28;8.02;;;3.55;;
23230;SDS011;11784;49.818;8.632;2022-10-19T00:12:53;9.73;;;2.95;;
23230;SDS011;11784;49.818;8.632;2022-10-19T00:15:19;6.18;;;3.05;;
23230;SDS011;11784;49.818;8.632;2022-10-19T00:17:44;6.40;;;2.80;;
23230;SDS011;11784;49.818;8.632;2022-10-19T00:20:10;6.13;;;3.25;;
23230;SDS011;11784;49.818;8.632;2022-10-19T00:22:36;5.93;;;2.40;;
23230;SDS011;11784;49.818;8.632;2022-10-19T00:25:02;5.90;;;2.35;;
23230;SDS011;11784;49.818;8.632;2022-10-19T00:27:28;3.75;;;2.20;;
23230;SDS011;11784;49.818;8.632;2022-10-19T00:29:53;4.75;;;2.45;;
23230;SDS011;11784;49.818;8.632;2022-10-19T00:32:19;4.43;;;2.08;;
23230;SDS011;11784;49.818;8.632;2022-10-19T00:34:44;4.68;;;2.17;;
23230;SDS011;11784;49.818;8.632;2022-10-19T00:37:10;3.55;;;2.33;;
23230;SDS011;11784;49.818;8.632;2022-10-19T00:39:35;6.53;;;2.50;;
23230;SDS011;11784;49.818;8.632;2022-10-19T00:42:01;5.07;;;2.53;;
23230;SDS011;11784;49.818;8.632;2022-10-19T00:46:52;5.93;;;2.60;;
23230;SDS011;11784;49.818;8.632;2022-10-19T00:49:24;4.22;;;1.60;;
23230;SDS011;11784;49.818;8.632;2022-10-19T00:51:53;3.28;;;1.80;;
23230;SDS011;11784;49.818;8.632;2022-10-19T00:54:21;2.97;;;1.70;;
23230;SDS011;11784;49.818;8.632;2022-10-19T00:56:48;7.00;;;2.10;;
23230;SDS011;11784;49.818;8.632;2022-10-19T00:59:16;4.07;;;1.92;;
23230;SDS011;11784;49.818;8.632;2022-10-19T01:01:44;4.03;;;1.83;;
23230;SDS011;11784;49.818;8.632;2022-10-19T01:04:11;4.82;;;2.20;;
23230;SDS011;11784;49.818;8.632;2022-10-19T01:06:38;2.83;;;1.52;;
23230;SDS011;11784;49.818;8.632;2022-10-19T01:09:04;5.43;;;2.45;;
23230;SDS011;11784;49.818;8.632;2022-10-19T01:20:32;4.95;;;2.30;;
23230;SDS011;11784;49.818;8.632;2022-10-19T01:23:44;4.80;;;2.45;;
23230;SDS011;11784;49.818;8.632;2022-10-19T01:32:15;6.75;;;2.72;;
23230;SDS011;11784;49.818;8.632;2022-10-19T01:34:50;6.38;;;2.65;;
23230;SDS011;11784;49.818;8.632;2022-10-19T01:39:57;8.05;;;3.28;;
23230;SDS011;11784;49.818;8.632;2022-10-19T01:42:42;10.20;;;2.97;;
23230;SDS011;11784;49.818;8.632;2022-10-19T01:47:45;6.88;;;2.97;;
23230;SDS011;11784;49.818;8.632;2022-10-19T01:50:32;9.30;;;3.55;;
23230;SDS011;11784;49.818;8.632;2022-10-19T01:53:04;5.55;;;2.42;;
23230;SDS011;11784;49.818;8.632;2022-10-19T01:55:33;5.50;;;2.33;;
23230;SDS011;11784;49.818;8.632;2022-10-19T01:58:02;6.22;;;2.67;;
23230;SDS011;11784;49.818;8.632;2022-10-19T02:00:31;6.95;;;1.98;;
23230;SDS011;11784;49.818;8.632;2022-10-19T02:03:01;8.48;;;2.50;;
23230;SDS011;11784;49.818;8.632;2022-10-19T02:05:29;5.05;;;2.10;;
23230;SDS011;11784;49.818;8.632;2022-10-19T02:07:58;6.88;;;2.28;;
23230;SDS011;11784;49.818;8.632;2022-10-19T02:10:26;4.05;;;1.70;;
23230;SDS011;11784;49.818;8.632;2022-10-19T02:12:53;6.63;;;2.15;;
23230;SDS011;11784;49.818;8.632;2022-10-19T02:15:20;7.65;;;2.38;;
23230;SDS011;11784;49.818;8.632;2022-10-19T02:17:51;4.00;;;1.73;;
23230;SDS011;11784;49.818;8.632;2022-10-19T02:20:21;3.78;;;2.00;;
23230;SDS011;11784;49.818;8.632;2022-10-19T02:22:47;5.50;;;2.40;;
23230;SDS011;11784;49.818;8.632;2022-10-19T02:25:13;4.85;;;1.70;;
23230;SDS011;11784;49.818;8.632;2022-10-19T02:27:39;5.95;;;2.13;;
23230;SDS011;11784;49.818;8.632;2022-10-19T02:30:07;4.10;;;1.77;;
23230;SDS011;11784;49.818;8.632;2022-10-19T02:32:34;4.50;;;1.88;;
23230;SDS011;11784;49.818;8.632;2022-10-19T02:35:00;10.60;;;2.35;;
23230;SDS011;11784;49.818;8.632;2022-10-19T02:37:26;7.35;;;2.13;;
23230;SDS011;11784;49.818;8.632;2022-10-19T02:39:52;4.22;;;1.85;;
23230;SDS011;11784;49.818;8.632;2022-10-19T02:42:19;4.80;;;2.30;;
23230;SDS011;11784;49.818;8.632;2022-10-19T02:47:47;3.85;;;1.63;;
23230;SDS011;11784;49.818;8.632;2022-10-19T02:50:16;5.63;;;2.20;;
23230;SDS011;11784;49.818;8.632;2022-10-19T02:52:43;5.20;;;2.50;;
23230;SDS011;11784;49.818;8.632;2022-10-19T02:55:09;3.13;;;1.88;;
23230;SDS011;11784;49.818;8.632;2022-10-19T02:57:34;4.50;;;2.28;;
23230;SDS011;11784;49.818;8.632;2022-10-19T03:00:00;5.90;;;2.38;;
23230;SDS011;11784;49.818;8.632;2022-10-19T03:02:27;4.32;;;1.73;;
23230;SDS011;11784;49.818;8.632;2022-10-19T03:04:53;6.38;;;1.55;;
23230;SDS011;11784;49.818;8.632;2022-10-19T03:07:19;5.70;;;1.50;;
23230;SDS011;11784;49.818;8.632;2022-10-19T03:09:45;4.95;;;1.77;;
23230;SDS011;11784;49.818;8.632;2022-10-19T03:12:11;5.30;;;2.10;;
23230;SDS011;11784;49.818;8.632;2022-10-19T03:14:37;5.55;;;2.17;;
23230;SDS011;11784;49.818;8.632;2022-10-19T03:17:03;6.15;;;2.45;;
23230;SDS011;11784;49.818;8.632;2022-10-19T03:19:29;2.45;;;1.48;;
23230;SDS011;11784;49.818;8.632;2022-10-19T03:21:54;3.40;;;1.92;;
23230;SDS011;11784;49.818;8.632;2022-10-19T03:24:20;4.18;;;1.38;;
23230;SDS011;11784;49.818;8.632;2022-10-19T03:26:46;4.28;;;1.90;;
23230;SDS011;11784;49.818;8.632;2022-10-19T03:29:12;2.55;;;1.50;;
23230;SDS011;11784;49.818;8.632;2022-10-19T03:31:38;4.85;;;1.70;;
23230;SDS011;11784;49.818;8.632;2022-10-19T03:34:03;3.42;;;1.38;;
23230;SDS011;11784;49.818;8.632;2022-10-19T03:36:33;4.45;;;1.60;;
23230;SDS011;11784;49.818;8.632;2022-10-19T03:39:01;4.00;;;1.52;;
23230;SDS011;11784;49.818;8.632;2022-10-19T03:41:30;2.53;;;1.13;;
23230;SDS011;11784;49.818;8.632;2022-10-19T03:43:57;2.80;;;1.88;;
23230;SDS011;11784;49.818;8.632;2022-10-19T03:46:23;3.72;;;1.27;;
23230;SDS011;11784;49.818;8.632;2022-10-19T03:48:48;4.32;;;1.63;;
23230;SDS011;11784;49.818;8.632;2022-10-19T03:51:16;3.25;;;1.40;;
23230;SDS011;11784;49.818;8.632;2022-10-19T03:53:43;2.72;;;1.25;;
23230;SDS011;11784;49.818;8.632;2022-10-19T03:56:13;2.50;;;1.65;;
23230;SDS011;11784;49.818;8.632;2022-10-19T03:58:40;2.75;;;1.50;;
23230;SDS011;11784;49.818;8.632;2022-10-19T04:01:15;2.97;;;1.50;;
23230;SDS011;11784;49.818;8.632;2022-10-19T04:03:45;2.47;;;1.40;;
23230;SDS011;11784;49.818;8.632;2022-10-19T04:06:15;19.77;;;2.58;;
23230;SDS011;11784;49.818;8.632;2022-10-19T04:08:42;2.55;;;1.30;;
23230;SDS011;11784;49.818;8.632;2022-10-19T04:11:12;2.35;;;1.15;;
23230;SDS011;11784;49.818;8.632;2022-10-19T04:13:39;3.25;;;1.77;;
23230;SDS011;11784;49.818;8.632;2022-10-19T04:16:05;3.20;;;1.60;;
23230;SDS011;11784;49.818;8.632;2022-10-19T04:18:31;4.50;;;1.38;;
23230;SDS011;11784;49.818;8.632;2022-10-19T04:20:57;2.95;;;1.35;;
23230;SDS011;11784;49.818;8.632;2022-10-19T04:23:28;3.05;;;1.45;;
23230;SDS011;11784;49.818;8.632;2022-10-19T04:25:59;8.20;;;1.08;;
23230;SDS011;11784;49.818;8.632;2022-10-19T04:28:25;3.10;;;1.20;;
23230;SDS011;11784;49.818;8.632;2022-10-19T04:30:51;3.35;;;1.42;;
23230;SDS011;11784;49.818;8.632;2022-10-19T04:33:17;2.67;;;1.10;;
23230;SDS011;11784;49.818;8.632;2022-10-19T04:35:42;2.47;;;1.27;;
23230;SDS011;11784;49.818;8.632;2022-10-19T04:38:08;2.38;;;1.08;;
23230;SDS011;11784;49.818;8.632;2022-10-19T04:40:36;3.83;;;1.60;;
23230;SDS011;11784;49.818;8.632;2022-10-19T04:43:03;2.38;;;1.25;;
23230;SDS011;11784;49.818;8.632;2022-10-19T04:45:29;2.67;;;1.45;;
23230;SDS011;11784;49.818;8.632;2022-10-19T04:47:55;2.80;;;1.35;;
23230;SDS011;11784;49.818;8.632;2022-10-19T04:50:21;4.18;;;1.30;;
23230;SDS011;11784;49.818;8.632;2022-10-19T04:52:47;4.85;;;1.70;;
23230;SDS011;11784;49.818;8.632;2022-10-19T04:55:13;2.17;;;1.13;;
23230;SDS011;11784;49.818;8.632;2022-10-19T04:57:38;4.88;;;1.60;;
23230;SDS011;11784;49.818;8.632;2022-10-19T05:00:04;2.88;;;1.42;;
23230;SDS011;11784;49.818;8.632;2022-10-19T05:02:30;3.97;;;1.63;;
23230;SDS011;11784;49.818;8.632;2022-10-19T05:04:56;2.92;;;1.30;;
23230;SDS011;11784;49.818;8.632;2022-10-19T05:07:21;4.00;;;1.48;;
23230;SDS011;11784;49.818;8.632;2022-10-19T05:09:47;2.80;;;1.48;;
23230;SDS011;11784;49.818;8.632;2022-10-19T05:12:12;2.60;;;1.52;;
23230;SDS011;11784;49.818;8.632;2022-10-19T05:14:38;2.78;;;1.10;;
23230;SDS011;11784;49.818;8.632;2022-10-19T05:17:03;2.60;;;1.27;;
23230;SDS011;11784;49.818;8.632;2022-10-19T05:19:29;3.92;;;1.95;;
23230;SDS011;11784;49.818;8.632;2022-10-19T05:21:56;2.55;;;1.40;;
23230;SDS011;11784;49.818;8.632;2022-10-19T05:24:21;4.00;;;1.70;;
23230;SDS011;11784;49.818;8.632;2022-10-19T05:26:47;3.75;;;1.98;;
23230;SDS011;11784;49.818;8.632;2022-10-19T05:29:13;4.10;;;1.52;;
23230;SDS011;11784;49.818;8.632;2022-10-19T05:31:39;1.92;;;1.02;;
23230;SDS011;11784;49.818;8.632;2022-10-19T05:34:04;3.38;;;1.60;;
23230;SDS011;11784;49.818;8.632;2022-10-19T05:36:31;6.45;;;2.58;;
23230;SDS011;11784;49.818;8.632;2022-10-19T05:39:00;5.43;;;3.03;;
23230;SDS011;11784;49.818;8.632;2022-10-19T05:41:30;6.95;;;3.25;;
23230;SDS011;11784;49.818;8.632;2022-10-19T05:43:56;5.53;;;3.13;;
23230;SDS011;11784;49.818;8.632;2022-10-19T05:46:23;3.63;;;2.45;;
23230;SDS011;11784;49.818;8.632;2022-10-19T05:48:50;5.15;;;2.15;;
23230;SDS011;11784;49.818;8.632;2022-10-19T05:51:16;4.97;;;2.67;;
23230;SDS011;11784;49.818;8.632;2022-10-19T05:53:43;6.57;;;3.10;;
23230;SDS011;11784;49.818;8.632;2022-10-19T05:56:13;4.50;;;2.28;;
23230;SDS011;11784;49.818;8.632;2022-10-19T06:01:07;8.20;;;2.95;;
23230;SDS011;11784;49.818;8.632;2022-10-19T06:03:33;4.32;;;2.50;;
23230;SDS011;11784;49.818;8.632;2022-10-19T06:06:01;9.18;;;2.70;;
23230;SDS011;11784;49.818;8.632;2022-10-19T06:08:31;4.88;;;2.92;;
23230;SDS011;11784;49.818;8.632;2022-10-19T06:11:07;4.82;;;2.47;;
23230;SDS011;11784;49.818;8.632;2022-10-19T06:13:35;6.80;;;3.25;;
23230;SDS011;11784;49.818;8.632;2022-10-19T06:16:02;6.38;;;3.20;;
23230;SDS011;11784;49.818;8.632;2022-10-19T06:18:28;3.58;;;2.10;;
23230;SDS011;11784;49.818;8.632;2022-10-19T06:20:53;6.47;;;3.13;;
23230;SDS011;11784;49.818;8.632;2022-10-19T06:23:19;5.53;;;2.60;;
23230;SDS011;11784;49.818;8.632;2022-10-19T06:25:45;8.00;;;2.97;;
23230;SDS011;11784;49.818;8.632;2022-10-19T06:28:10;6.57;;;2.63;;
23230;SDS011;11784;49.818;8.632;2022-10-19T06:30:39;9.93;;;4.03;;
23230;SDS011;11784;49.818;8.632;2022-10-19T06:33:05;11.38;;;2.88;;
23230;SDS011;11784;49.818;8.632;2022-10-19T06:35:31;8.15;;;3.28;;
23230;SDS011;11784;49.818;8.632;2022-10-19T06:37:57;6.18;;;3.28;;
23230;SDS011;11784;49.818;8.632;2022-10-19T06:40:23;12.68;;;3.13;;
23230;SDS011;11784;49.818;8.632;2022-10-19T06:42:49;7.28;;;3.53;;
23230;SDS011;11784;49.818;8.632;2022-10-19T06:45:15;8.25;;;3.15;;
23230;SDS011;11784;49.818;8.632;2022-10-19T06:47:41;7.22;;;2.70;;
23230;SDS011;11784;49.818;8.632;2022-10-19T06:50:07;11.50;;;3.08;;
23230;SDS011;11784;49.818;8.632;2022-10-19T06:52:33;7.05;;;2.97;;
23230;SDS011;11784;49.818;8.632;2022-10-19T06:54:59;6.60;;;3.45;;
23230;SDS011;11784;49.818;8.632;2022-10-19T06:57:25;5.15;;;2.72;;
23230;SDS011;11784;49.818;8.632;2022-10-19T06:59:50;4.53;;;2.80;;
23230;SDS011;11784;49.818;8.632;2022-10-19T07:02:16;5.35;;;2.85;;
23230;SDS011;11784;49.818;8.632;2022-10-19T07:04:41;6.78;;;2.75;;
23230;SDS011;11784;49.818;8.632;2022-10-19T07:07:07;10.93;;;3.25;;
23230;SDS011;11784;49.818;8.632;2022-10-19T07:09:33;8.20;;;3.53;;
23230;SDS011;11784;49.818;8.632;2022-10-19T07:11:58;5.50;;;3.20;;
23230;SDS011;11784;49.818;8.632;2022-10-19T07:14:24;5.60;;;2.58;;
23230;SDS011;11784;49.818;8.632;2022-10-19T07:16:52;5.80;;;2.83;;
23230;SDS011;11784;49.818;8.632;2022-10-19T07:19:18;5.35;;;2.30;;
23230;SDS011;11784;49.818;8.632;2022-10-19T07:21:43;7.65;;;3.38;;
23230;SDS011;11784;49.818;8.632;2022-10-19T07:24:09;4.07;;;2.65;;
23230;SDS011;11784;49.818;8.632;2022-10-19T07:26:35;7.13;;;2.75;;
23230;SDS011;11784;49.818;8.632;2022-10-19T07:29:01;5.57;;;3.00;;
23230;SDS011;11784;49.818;8.632;2022-10-19T07:31:28;4.90;;;2.42;;
23230;SDS011;11784;49.818;8.632;2022-10-19T07:33:55;4.90;;;2.45;;
23230;SDS011;11784;49.818;8.632;2022-10-19T07:36:23;7.50;;;2.88;;
23230;SDS011;11784;49.818;8.632;2022-10-19T07:38:49;5.03;;;2.65;;
23230;SDS011;11784;49.818;8.632;2022-10-19T07:41:16;6.55;;;3.08;;
23230;SDS011;11784;49.818;8.632;2022-10-19T07:43:43;4.70;;;2.83;;
23230;SDS011;11784;49.818;8.632;2022-10-19T07:46:11;6.78;;;3.08;;
23230;SDS011;11784;49.818;8.632;2022-10-19T07:48:39;5.53;;;3.65;;
23230;SDS011;11784;49.818;8.632;2022-10-19T07:51:05;5.28;;;2.70;;
23230;SDS011;11784;49.818;8.632;2022-10-19T07:53:32;5.82;;;2.25;;
23230;SDS011;11784;49.818;8.632;2022-10-19T07:56:03;11.10;;;3.45;;
23230;SDS011;11784;49.818;8.632;2022-10-19T07:58:28;5.40;;;2.78;;
23230;SDS011;11784;49.818;8.632;2022-10-19T08:00:58;7.15;;;2.90;;
23230;SDS011;11784;49.818;8.632;2022-10-19T08:03:24;6.63;;;2.75;;
23230;SDS011;11784;49.818;8.632;2022-10-19T08:05:50;6.20;;;3.13;;
23230;SDS011;11784;49.818;8.632;2022-10-19T08:08:15;4.93;;;2.55;;
23230;SDS011;11784;49.818;8.632;2022-10-19T08:10:41;7.20;;;3.45;;
23230;SDS011;11784;49.818;8.632;2022-10-19T08:13:06;3.55;;;2.28;;
23230;SDS011;11784;49.818;8.632;2022-10-19T08:15:32;5.57;;;2.50;;
23230;SDS011;11784;49.818;8.632;2022-10-19T08:17:58;5.53;;;2.67;;
23230;SDS011;11784;49.818;8.632;2022-10-19T08:20:24;6.20;;;2.88;;
23230;SDS011;11784;49.818;8.632;2022-10-19T08:22:50;6.80;;;2.97;;
23230;SDS011;11784;49.818;8.632;2022-10-19T08:25:15;9.30;;;3.65;;
23230;SDS011;11784;49.818;8.632;2022-10-19T08:27:41;9.60;;;3.03;;
23230;SDS011;11784;49.818;8.632;2022-10-19T08:30:07;7.10;;;2.92;;
23230;SDS011;11784;49.818;8.632;2022-10-19T08:32:32;5.60;;;2.65;;
23230;SDS011;11784;49.818;8.632;2022-10-19T08:34:58;5.80;;;2.75;;
23230;SDS011;11784;49.818;8.632;2022-10-19T08:37:23;6.95;;;2.13;;
23230;SDS011;11784;49.818;8.632;2022-10-19T08:39:49;5.90;;;2.80;;
23230;SDS011;11784;49.818;8.632;2022-10-19T08:45:33;5.55;;;2.78;;
23230;SDS011;11784;49.818;8.632;2022-10-19T08:50:56;6.82;;;3.03;;
23230;SDS011;11784;49.818;8.632;2022-10-19T08:53:36;6.85;;;2.45;;
23230;SDS011;11784;49.818;8.632;2022-10-19T08:59:08;5.45;;;2.65;;
23230;SDS011;11784;49.818;8.632;2022-10-19T09:01:57;4.93;;;2.78;;
23230;SDS011;11784;49.818;8.632;2022-10-19T09:04:37;6.03;;;2.83;;
23230;SDS011;11784;49.818;8.632;2022-10-19T09:09:50;8.57;;;2.60;;
23230;SDS011;11784;49.818;8.632;2022-10-19T09:12:30;4.38;;;2.13;;
23230;SDS011;11784;49.818;8.632;2022-10-19T09:15:19;5.30;;;2.35;;
23230;SDS011;11784;49.818;8.632;2022-10-19T09:17:49;6.47;;;2.90;;
23230;SDS011;11784;49.818;8.632;2022-10-19T09:20:17;4.43;;;2.25;;
23230;SDS011;11784;49.818;8.632;2022-10-19T09:22:49;4.68;;;2.38;;
23230;SDS011;11784;49.818;8.632;2022-10-19T09:25:34;7.18;;;2.72;;
23230;SDS011;11784;49.818;8.632;2022-10-19T09:31:11;5.32;;;3.50;;
23230;SDS011;11784;49.818;8.632;2022-10-19T09:33:39;4.22;;;2.10;;
23230;SDS011;11784;49.818;8.632;2022-10-19T09:36:07;7.70;;;3.45;;
23230;SDS011;11784;49.818;8.632;2022-10-19T09:38:34;6.78;;;3.05;;
23230;SDS011;11784;49.818;8.632;2022-10-19T09:41:19;5.65;;;2.40;;
23230;SDS011;11784;49.818;8.632;2022-10-19T09:43:49;5.10;;;2.63;;
23230;SDS011;11784;49.818;8.632;2022-10-19T09:46:24;6.13;;;2.92;;
23230;SDS011;11784;49.818;8.632;2022-10-19T09:48:53;4.63;;;2.55;;
23230;SDS011;11784;49.818;8.632;2022-10-19T09:51:19;5.93;;;2.65;;
23230;SDS011;11784;49.818;8.632;2022-10-19T09:53:45;6.80;;;2.17;;
23230;SDS011;11784;49.818;8.632;2022-10-19T09:56:21;3.40;;;2.17;;
23230;SDS011;11784;49.818;8.632;2022-10-19T09:58:49;7.35;;;2.80;;
23230;SDS011;11784;49.818;8.632;2022-10-19T10:01:30;6.68;;;3.05;;
23230;SDS011;11784;49.818;8.632;2022-10-19T10:04:07;4.90;;;2.30;;
23230;SDS011;11784;49.818;8.632;2022-10-19T10:06:41;5.90;;;2.88;;
23230;SDS011;11784;49.818;8.632;2022-10-19T10:09:14;8.63;;;3.38;;
23230;SDS011;11784;49.818;8.632;2022-10-19T10:11:46;5.75;;;2.53;;
23230;SDS011;11784;49.818;8.632;2022-10-19T10:14:18;5.97;;;2.42;;
23230;SDS011;11784;49.818;8.632;2022-10-19T10:16:47;5.07;;;2.88;;
23230;SDS011;11784;49.818;8.632;2022-10-19T10:19:14;4.63;;;2.42;;
23230;SDS011;11784;49.818;8.632;2022-10-19T10:24:20;5.13;;;2.58;;
23230;SDS011;11784;49.818;8.632;2022-10-19T10:26:48;6.53;;;2.47;;
23230;SDS011;11784;49.818;8.632;2022-10-19T10:29:16;6.90;;;3.15;;
23230;SDS011;11784;49.818;8.632;2022-10-19T10:31:51;6.78;;;3.42;;
23230;SDS011;11784;49.818;8.632;2022-10-19T10:34:29;5.35;;;2.53;;
23230;SDS011;11784;49.818;8.632;2022-10-19T10:37:22;7.13;;;3.38;;
23230;SDS011;11784;49.818;8.632;2022-10-19T10:39:53;5.05;;;2.40;;
23230;SDS011;11784;49.818;8.632;2022-10-19T10:42:23;4.20;;;2.28;;
23230;SDS011;11784;49.818;8.632;2022-10-19T10:44:53;5.00;;;2.80;;
23230;SDS011;11784;49.818;8.632;2022-10-19T10:47:22;9.20;;;2.50;;
23230;SDS011;11784;49.818;8.632;2022-10-19T10:50:02;4.07;;;2.50;;
23230;SDS011;11784;49.818;8.632;2022-10-19T10:52:30;3.95;;;2.03;;
23230;SDS011;11784;49.818;8.632;2022-10-19T10:57:42;4.13;;;2.50;;
23230;SDS011;11784;49.818;8.632;2022-10-19T11:00:15;6.10;;;2.22;;
23230;SDS011;11784;49.818;8.632;2022-10-19T11:02:57;3.33;;;2.28;;
23230;SDS011;11784;49.818;8.632;2022-10-19T11:05:30;3.85;;;2.10;;
23230;SDS011;11784;49.818;8.632;2022-10-19T11:10:38;3.72;;;1.95;;
23230;SDS011;11784;49.818;8.632;2022-10-19T11:13:23;2.97;;;1.67;;
23230;SDS011;11784;49.818;8.632;2022-10-19T11:16:03;2.78;;;2.03;;
23230;SDS011;11784;49.818;8.632;2022-10-19T11:18:38;2.15;;;1.65;;
23230;SDS011;11784;49.818;8.632;2022-10-19T11:21:28;6.38;;;2.25;;
23230;SDS011;11784;49.818;8.632;2022-10-19T11:24:17;4.68;;;1.90;;
23230;SDS011;11784;49.818;8.632;2022-10-19T11:29:55;2.45;;;1.60;;
23230;SDS011;11784;49.818;8.632;2022-10-19T11:43:19;2.30;;;1.10;;
23230;SDS011;11784;49.818;8.632;2022-10-19T11:46:07;4.38;;;1.45;;
23230;SDS011;11784;49.818;8.632;2022-10-19T11:48:56;3.75;;;1.38;;
23230;SDS011;11784;49.818;8.632;2022-10-19T11:51:41;3.42;;;1.50;;
23230;SDS011;11784;49.818;8.632;2022-10-19T11:54:45;2.47;;;1.20;;
23230;SDS011;11784;49.818;8.632;2022-10-19T11:57:30;2.17;;;1.20;;
23230;SDS011;11784;49.818;8.632;2022-10-19T12:00:05;2.10;;;0.98;;
23230;SDS011;11784;49.818;8.632;2022-10-19T12:02:42;2.05;;;1.20;;
23230;SDS011;11784;49.818;8.632;2022-10-19T12:13:55;2.25;;;1.00;;
23230;SDS011;11784;49.818;8.632;2022-10-19T12:16:32;2.65;;;0.90;;
23230;SDS011;11784;49.818;8.632;2022-10-19T12:19:09;1.67;;;1.10;;
23230;SDS011;11784;49.818;8.632;2022-10-19T12:21:41;2.13;;;1.20;;
23230;SDS011;11784;49.818;8.632;2022-10-19T12:24:15;3.28;;;0.85;;
23230;SDS011;11784;49.818;8.632;2022-10-19T12:26:44;1.27;;;0.70;;
23230;SDS011;11784;49.818;8.632;2022-10-19T12:29:12;1.38;;;0.90;;
23230;SDS011;11784;49.818;8.632;2022-10-19T12:31:43;1.95;;;1.00;;
23230;SDS011;11784;49.818;8.632;2022-10-19T12:36:50;2.45;;;1.30;;
23230;SDS011;11784;49.818;8.632;2022-10-19T12:42:24;1.67;;;1.13;;
23230;SDS011;11784;49.818;8.632;2022-10-19T12:53:34;1.73;;;0.98;;
23230;SDS011;11784;49.818;8.632;2022-10-19T12:58:53;4.07;;;1.45;;
23230;SDS011;11784;49.818;8.632;2022-10-19T13:04:04;2.35;;;1.38;;
23230;SDS011;11784;49.818;8.632;2022-10-19T13:06:45;1.42;;;0.85;;
23230;SDS011;11784;49.818;8.632;2022-10-19T13:09:46;2.40;;;1.60;;
23230;SDS011;11784;49.818;8.632;2022-10-19T13:14:43;2.05;;;0.88;;
23230;SDS011;11784;49.818;8.632;2022-10-19T13:22:38;2.45;;;1.63;;
23230;SDS011;11784;49.818;8.632;2022-10-19T13:27:41;1.83;;;1.15;;
23230;SDS011;11784;49.818;8.632;2022-10-19T13:41:13;2.30;;;1.42;;
23230;SDS011;11784;49.818;8.632;2022-10-19T13:48:47;2.00;;;1.20;;
23230;SDS011;11784;49.818;8.632;2022-10-19T14:10:21;1.73;;;0.80;;
23230;SDS011;11784;49.818;8.632;2022-10-19T14:12:48;1.92;;;1.00;;
23230;SDS011;11784;49.818;8.632;2022-10-19T14:17:46;3.65;;;1.35;;
23230;SDS011;11784;49.818;8.632;2022-10-19T14:20:31;1.98;;;1.10;;
23230;SDS011;11784;49.818;8.632;2022-10-19T14:26:11;2.75;;;1.35;;
23230;SDS011;11784;49.818;8.632;2022-10-19T14:28:50;5.32;;;1.15;;
23230;SDS011;11784;49.818;8.632;2022-10-19T14:31:21;2.15;;;1.15;;
23230;SDS011;11784;49.818;8.632;2022-10-19T14:36:17;2.55;;;1.23;;
23230;SDS011;11784;49.818;8.632;2022-10-19T14:38:45;2.25;;;1.15;;
23230;SDS011;11784;49.818;8.632;2022-10-19T14:43:58;1.67;;;1.02;;
23230;SDS011;11784;49.818;8.632;2022-10-19T14:46:31;2.15;;;0.98;;
23230;SDS011;11784;49.818;8.632;2022-10-19T14:48:59;2.47;;;1.23;;
23230;SDS011;11784;49.818;8.632;2022-10-19T14:59:28;2.90;;;1.45;;
23230;SDS011;11784;49.818;8.632;2022-10-19T15:01:59;2.22;;;1.30;;
23230;SDS011;11784;49.818;8.632;2022-10-19T15:04:30;2.45;;;1.02;;
23230;SDS011;11784;49.818;8.632;2022-10-19T15:07:01;3.28;;;1.15;;
23230;SDS011;11784;49.818;8.632;2022-10-19T15:09:29;1.67;;;1.10;;
23230;SDS011;11784;49.818;8.632;2022-10-19T15:12:08;1.63;;;1.15;;
23230;SDS011;11784;49.818;8.632;2022-10-19T15:17:05;3.78;;;1.10;;
23230;SDS011;11784;49.818;8.632;2022-10-19T15:24:39;2.55;;;1.00;;
23230;SDS011;11784;49.818;8.632;2022-10-19T15:27:19;5.13;;;1.10;;
23230;SDS011;11784;49.818;8.632;2022-10-19T15:29:53;2.30;;;1.38;;
23230;SDS011;11784;49.818;8.632;2022-10-19T15:32:25;1.98;;;1.10;;
23230;SDS011;11784;49.818;8.632;2022-10-19T15:34:56;2.40;;;1.10;;
23230;SDS011;11784;49.818;8.632;2022-10-19T15:37:22;3.05;;;1.48;;
23230;SDS011;11784;49.818;8.632;2022-10-19T15:39:49;2.45;;;1.05;;
23230;SDS011;11784;49.818;8.632;2022-10-19T15:45:01;1.67;;;1.08;;
23230;SDS011;11784;49.818;8.632;2022-10-19T15:48:01;2.72;;;1.30;;
23230;SDS011;11784;49.818;8.632;2022-10-19T15:50:39;1.88;;;1.25;;
23230;SDS011;11784;49.818;8.632;2022-10-19T15:53:08;1.83;;;1.10;;
23230;SDS011;11784;49.818;8.632;2022-10-19T15:55:34;2.45;;;1.45;;
23230;SDS011;11784;49.818;8.632;2022-10-19T15:58:00;2.47;;;1.17;;
23230;SDS011;11784;49.818;8.632;2022-10-19T16:00:25;2.78;;;1.60;;
23230;SDS011;11784;49.818;8.632;2022-10-19T16:02:53;1.38;;;1.10;;
23230;SDS011;11784;49.818;8.632;2022-10-19T16:05:18;8.43;;;1.25;;
23230;SDS011;11784;49.818;8.632;2022-10-19T16:07:45;2.20;;;1.50;;
23230;SDS011;11784;49.818;8.632;2022-10-19T16:10:13;3.20;;;1.38;;
23230;SDS011;11784;49.818;8.632;2022-10-19T16:12:41;4.18;;;1.67;;
23230;SDS011;11784;49.818;8.632;2022-10-19T16:15:07;1.58;;;1.13;;
23230;SDS011;11784;49.818;8.632;2022-10-19T16:17:41;2.42;;;1.35;;
23230;SDS011;11784;49.818;8.632;2022-10-19T16:20:08;3.80;;;1.83;;
23230;SDS011;11784;49.818;8.632;2022-10-19T16:22:35;2.28;;;1.40;;
23230;SDS011;11784;49.818;8.632;2022-10-19T16:25:00;2.22;;;1.35;;
23230;SDS011;11784;49.818;8.632;2022-10-19T16:27:26;1.42;;;1.17;;
23230;SDS011;11784;49.818;8.632;2022-10-19T16:29:51;2.38;;;1.20;;
23230;SDS011;11784;49.818;8.632;2022-10-19T16:32:18;3.65;;;1.95;;
23230;SDS011;11784;49.818;8.632;2022-10-19T16:34:44;3.00;;;1.48;;
23230;SDS011;11784;49.818;8.632;2022-10-19T16:37:10;2.63;;;1.58;;
23230;SDS011;11784;49.818;8.632;2022-10-19T16:39:36;3.28;;;1.65;;
23230;SDS011;11784;49.818;8.632;2022-10-19T16:42:01;2.88;;;1.88;;
23230;SDS011;11784;49.818;8.632;2022-10-19T16:44:27;3.13;;;1.63;;
23230;SDS011;11784;49.818;8.632;2022-10-19T16:46:54;3.42;;;1.88;;
23230;SDS011;11784;49.818;8.632;2022-10-19T16:49:20;4.20;;;2.15;;
23230;SDS011;11784;49.818;8.632;2022-10-19T16:51:46;5.47;;;2.08;;
23230;SDS011;11784;49.818;8.632;2022-10-19T16:54:13;3.92;;;1.85;;
23230;SDS011;11784;49.818;8.632;2022-10-19T16:56:43;4.25;;;2.13;;
23230;SDS011;11784;49.818;8.632;2022-10-19T16:59:10;3.60;;;1.67;;
23230;SDS011;11784;49.818;8.632;2022-10-19T17:01:37;4.50;;;2.33;;
23230;SDS011;11784;49.818;8.632;2022-10-19T17:04:03;5.68;;;2.72;;
23230;SDS011;11784;49.818;8.632;2022-10-19T17:06:29;4.20;;;1.75;;
23230;SDS011;11784;49.818;8.632;2022-10-19T17:08:55;3.17;;;1.80;;
23230;SDS011;11784;49.818;8.632;2022-10-19T17:13:59;3.65;;;2.08;;
23230;SDS011;11784;49.818;8.632;2022-10-19T17:16:28;4.40;;;2.30;;
23230;SDS011;11784;49.818;8.632;2022-10-19T17:18:55;3.45;;;1.80;;
23230;SDS011;11784;49.818;8.632;2022-10-19T17:21:22;4.82;;;2.47;;
23230;SDS011;11784;49.818;8.632;2022-10-19T17:23:50;6.60;;;3.25;;
23230;SDS011;11784;49.818;8.632;2022-10-19T17:26:30;3.72;;;2.08;;
23230;SDS011;11784;49.818;8.632;2022-10-19T17:29:01;4.68;;;2.33;;
23230;SDS011;11784;49.818;8.632;2022-10-19T17:31:28;3.72;;;2.10;;
23230;SDS011;11784;49.818;8.632;2022-10-19T17:33:54;6.10;;;3.17;;
23230;SDS011;11784;49.818;8.632;2022-10-19T17:36:21;5.05;;;2.53;;
23230;SDS011;11784;49.818;8.632;2022-10-19T17:38:55;4.95;;;2.40;;
23230;SDS011;11784;49.818;8.632;2022-10-19T17:41:30;5.22;;;2.50;;
23230;SDS011;11784;49.818;8.632;2022-10-19T17:43:56;5.53;;;2.63;;
23230;SDS011;11784;49.818;8.632;2022-10-19T17:46:22;5.00;;;2.55;;
23230;SDS011;11784;49.818;8.632;2022-10-19T17:48:51;3.55;;;2.03;;
23230;SDS011;11784;49.818;8.632;2022-10-19T17:51:17;5.72;;;3.15;;